Temperatur und Luftfeuchte

Temperatur und Luftfeuchte

Die letzten 100 Messwerte

Nummer Datum und Zeit Sensor ID Temperatur in Celsius gef├╝hlte Temperatur Luftfeuchte in %
67192 2022-08-16 12:39:20 Terrasse 28.70 26.30 1.00
67191 2022-08-16 12:31:41 Bahnzimmer 21.00 20.10 36.00
67190 2022-08-16 12:11:01 Terrasse 28.30 35.75 93.30
67189 2022-08-16 12:01:40 Bahnzimmer 21.00 20.12 37.00
67188 2022-08-16 11:42:31 Terrasse 27.10 25.89 1.00
67187 2022-08-16 11:31:40 Bahnzimmer 21.00 20.12 37.00
67186 2022-08-16 11:13:49 Terrasse 24.80 23.36 1.00
67185 2022-08-16 11:01:39 Bahnzimmer 21.00 20.15 38.00
67184 2022-08-16 10:45:18 Terrasse 22.80 23.74 99.90
67183 2022-08-16 10:31:38 Bahnzimmer 21.00 20.20 40.00
67182 2022-08-16 10:16:50 Terrasse 22.20 23.08 99.90
67181 2022-08-16 10:01:36 Bahnzimmer 21.00 20.23 41.00
67180 2022-08-16 09:48:24 Terrasse 21.30 22.09 99.90
67179 2022-08-16 09:31:35 Bahnzimmer 20.00 19.20 44.00
67178 2022-08-16 09:19:56 Terrasse 20.50 21.21 99.90
67177 2022-08-16 09:01:34 Bahnzimmer 20.00 19.23 45.00
67176 2022-08-16 08:51:30 Terrasse 19.80 17.86 1.00
67175 2022-08-16 08:31:33 Bahnzimmer 20.00 19.20 44.00
67174 2022-08-16 08:23:05 Terrasse 19.10 17.41 13.10
67173 2022-08-16 08:01:33 Bahnzimmer 20.00 19.15 42.00
67172 2022-08-16 07:54:41 Terrasse 18.60 19.12 99.90
67171 2022-08-16 07:31:32 Bahnzimmer 20.00 19.10 40.00
67170 2022-08-16 07:26:19 Terrasse 18.30 16.21 1.00
67169 2022-08-16 07:01:30 Bahnzimmer 20.00 19.05 38.00
67168 2022-08-16 06:57:58 Terrasse 18.20 16.10 1.00
67167 2022-08-16 06:31:27 Bahnzimmer 20.00 18.92 33.00
67166 2022-08-16 06:29:36 Terrasse 18.30 16.21 1.00
67165 2022-08-16 06:01:26 Bahnzimmer 21.00 19.68 20.00
67164 2022-08-16 06:01:15 Terrasse 18.40 16.32 1.00
67163 2022-08-16 05:32:54 Terrasse 18.60 19.12 99.90
67162 2022-08-16 05:31:26 Bahnzimmer 21.00 19.68 20.00
67161 2022-08-16 05:04:34 Terrasse 18.90 19.45 99.90
67160 2022-08-16 05:01:25 Bahnzimmer 21.00 19.68 20.00
67159 2022-08-16 04:36:14 Terrasse 19.20 17.20 1.00
67158 2022-08-16 04:31:24 Bahnzimmer 21.00 19.68 20.00
67157 2022-08-16 04:07:54 Terrasse 19.40 17.42 1.00
67156 2022-08-16 04:01:24 Bahnzimmer 21.00 19.68 20.00
67155 2022-08-16 03:39:32 Terrasse 19.60 17.64 1.00
67154 2022-08-16 03:31:23 Bahnzimmer 21.00 19.68 20.00
67153 2022-08-16 03:11:11 Terrasse 19.70 17.75 1.00
67152 2022-08-16 03:01:22 Bahnzimmer 21.00 19.68 20.00
67151 2022-08-16 02:42:52 Terrasse 20.10 18.19 1.00
67150 2022-08-16 02:31:21 Bahnzimmer 21.00 19.68 20.00
67149 2022-08-16 02:14:31 Terrasse 20.30 18.41 1.00
67148 2022-08-16 02:01:21 Bahnzimmer 22.00 20.78 20.00
67147 2022-08-16 01:46:10 Terrasse 20.50 18.63 1.00
67146 2022-08-16 01:31:20 Bahnzimmer 21.00 19.68 20.00
67145 2022-08-16 01:17:49 Terrasse 20.70 18.85 1.00
67144 2022-08-16 01:01:19 Bahnzimmer 22.00 20.78 20.00
67143 2022-08-16 00:49:29 Terrasse 20.90 21.65 99.90
67142 2022-08-16 00:31:19 Bahnzimmer 22.00 20.78 20.00
67141 2022-08-16 00:21:10 Terrasse 21.30 22.09 99.90
67140 2022-08-16 00:01:18 Bahnzimmer 22.00 20.78 20.00
67139 2022-08-15 23:52:51 Terrasse 21.60 19.84 1.00
67138 2022-08-15 23:31:17 Bahnzimmer 22.00 20.78 20.00
67137 2022-08-15 23:24:32 Terrasse 21.90 20.17 1.00
67136 2022-08-15 23:01:17 Bahnzimmer 21.00 19.68 20.00
67135 2022-08-15 22:56:12 Terrasse 22.30 23.02 93.20
67134 2022-08-15 22:31:16 Bahnzimmer 21.00 19.68 20.00
67133 2022-08-15 22:27:52 Terrasse 22.60 20.94 1.00
67132 2022-08-15 22:01:16 Bahnzimmer 22.00 20.78 20.00
67131 2022-08-15 21:59:32 Terrasse 23.00 21.38 1.00
67130 2022-08-15 21:31:15 Bahnzimmer 22.00 20.78 20.00
67129 2022-08-15 21:31:13 Terrasse 23.50 21.93 1.00
67128 2022-08-15 21:02:52 Terrasse 24.10 22.59 1.00
67127 2022-08-15 21:01:14 Bahnzimmer 22.00 20.78 20.00
67126 2022-08-15 20:34:34 Terrasse 24.50 23.03 1.00
67125 2022-08-15 20:31:14 Bahnzimmer 22.00 20.83 22.00
67124 2022-08-15 20:06:15 Terrasse 25.10 23.69 1.00
67123 2022-08-15 20:01:13 Bahnzimmer 22.00 20.83 22.00
67122 2022-08-15 19:37:55 Terrasse 25.50 24.13 1.00
67121 2022-08-15 19:31:12 Bahnzimmer 22.00 20.78 20.00
67120 2022-08-15 19:09:34 Terrasse 25.80 24.46 1.00
67119 2022-08-15 19:01:12 Bahnzimmer 22.00 20.86 23.00
67118 2022-08-15 18:41:14 Terrasse 26.10 24.79 1.00
67117 2022-08-15 18:31:11 Bahnzimmer 22.00 20.86 23.00
67116 2022-08-15 18:12:53 Terrasse 26.40 25.12 1.00
67115 2022-08-15 18:01:10 Bahnzimmer 22.00 20.88 24.00
67114 2022-08-15 17:44:32 Terrasse 26.30 25.01 1.00
67113 2022-08-15 17:31:10 Bahnzimmer 22.00 20.80 21.00
67112 2022-08-15 17:16:10 Terrasse 26.70 25.45 1.00
67111 2022-08-15 17:01:09 Bahnzimmer 22.00 20.83 22.00
67110 2022-08-15 16:47:48 Terrasse 26.50 25.23 1.00
67109 2022-08-15 16:31:08 Bahnzimmer 22.00 20.78 20.00
67108 2022-08-15 16:19:25 Terrasse 26.50 25.23 1.00
67107 2022-08-15 16:01:08 Bahnzimmer 22.00 20.86 23.00
67106 2022-08-15 15:51:05 Terrasse 26.70 25.45 1.00
67105 2022-08-15 15:31:07 Bahnzimmer 22.00 20.83 22.00
67104 2022-08-15 15:22:41 Terrasse 25.90 24.57 1.00
67103 2022-08-15 15:01:06 Bahnzimmer 22.00 20.83 22.00
67102 2022-08-15 14:54:20 Terrasse 25.90 24.57 1.00
67101 2022-08-15 14:31:06 Bahnzimmer 22.00 20.78 20.00
67100 2022-08-15 14:26:02 Terrasse 26.00 24.68 1.00
67099 2022-08-15 14:01:05 Bahnzimmer 22.00 20.78 20.00
67098 2022-08-15 13:57:42 Terrasse 26.70 25.45 1.00
67097 2022-08-15 13:31:04 Bahnzimmer 22.00 20.80 21.00
67096 2022-08-15 13:29:25 Terrasse 26.30 25.01 1.00
67095 2022-08-15 13:01:10 Terrasse 28.10 25.85 1.00
67094 2022-08-15 13:01:04 Bahnzimmer 22.00 20.78 20.00
67093 2022-08-15 12:32:42 Terrasse 25.30 23.91 1.00